sensor_id;sensor_type;location;lat;lon;timestamp;P1;durP1;ratioP1;P2;durP2;ratioP2
1811;SDS011;904;47.814;11.134;2024-03-22T00:01:22;20.13;;;12.07;;
1811;SDS011;904;47.814;11.134;2024-03-22T00:03:48;19.48;;;12.85;;
1811;SDS011;904;47.814;11.134;2024-03-22T00:06:21;19.00;;;12.55;;
1811;SDS011;904;47.814;11.134;2024-03-22T00:08:47;15.50;;;11.63;;
1811;SDS011;904;47.814;11.134;2024-03-22T00:11:17;16.13;;;12.63;;
1811;SDS011;904;47.814;11.134;2024-03-22T00:16:36;15.38;;;11.30;;
1811;SDS011;904;47.814;11.134;2024-03-22T00:19:02;16.13;;;13.93;;
1811;SDS011;904;47.814;11.134;2024-03-22T00:25:11;15.27;;;11.65;;
1811;SDS011;904;47.814;11.134;2024-03-22T00:27:46;15.93;;;10.70;;
1811;SDS011;904;47.814;11.134;2024-03-22T00:30:12;15.38;;;11.13;;
1811;SDS011;904;47.814;11.134;2024-03-22T00:32:46;13.15;;;10.00;;
1811;SDS011;904;47.814;11.134;2024-03-22T00:35:13;15.05;;;11.07;;
1811;SDS011;904;47.814;11.134;2024-03-22T00:50:53;18.42;;;9.80;;
1811;SDS011;904;47.814;11.134;2024-03-22T00:56:44;20.55;;;11.70;;
1811;SDS011;904;47.814;11.134;2024-03-22T01:02:35;14.73;;;10.35;;
1811;SDS011;904;47.814;11.134;2024-03-22T01:05:03;9.88;;;7.47;;
1811;SDS011;904;47.814;11.134;2024-03-22T01:18:21;9.57;;;7.95;;
1811;SDS011;904;47.814;11.134;2024-03-22T01:24:12;12.32;;;9.15;;
1811;SDS011;904;47.814;11.134;2024-03-22T01:30:03;10.80;;;9.57;;
1811;SDS011;904;47.814;11.134;2024-03-22T01:35:54;12.63;;;10.15;;
1811;SDS011;904;47.814;11.134;2024-03-22T01:38:24;12.18;;;9.68;;
1811;SDS011;904;47.814;11.134;2024-03-22T01:40:51;13.02;;;9.65;;
1811;SDS011;904;47.814;11.134;2024-03-22T01:43:18;13.75;;;10.90;;
1811;SDS011;904;47.814;11.134;2024-03-22T01:55:51;12.85;;;9.38;;
1811;SDS011;904;47.814;11.134;2024-03-22T02:05:27;13.23;;;9.60;;
1811;SDS011;904;47.814;11.134;2024-03-22T02:07:56;14.82;;;10.23;;
1811;SDS011;904;47.814;11.134;2024-03-22T02:21:03;12.55;;;9.20;;
1811;SDS011;904;47.814;11.134;2024-03-22T02:26:53;13.75;;;11.52;;
1811;SDS011;904;47.814;11.134;2024-03-22T02:29:35;15.55;;;10.65;;
1811;SDS011;904;47.814;11.134;2024-03-22T02:32:03;14.88;;;10.80;;
1811;SDS011;904;47.814;11.134;2024-03-22T02:34:36;16.95;;;10.68;;
1811;SDS011;904;47.814;11.134;2024-03-22T02:43:17;13.65;;;10.60;;
1811;SDS011;904;47.814;11.134;2024-03-22T02:49:07;14.10;;;10.50;;
1811;SDS011;904;47.814;11.134;2024-03-22T02:54:56;14.23;;;9.50;;
1811;SDS011;904;47.814;11.134;2024-03-22T03:00:55;10.43;;;7.85;;
1811;SDS011;904;47.814;11.134;2024-03-22T03:03:22;10.75;;;7.95;;
1811;SDS011;904;47.814;11.134;2024-03-22T03:05:50;14.10;;;9.25;;
1811;SDS011;904;47.814;11.134;2024-03-22T03:11:39;18.65;;;11.48;;
1811;SDS011;904;47.814;11.134;2024-03-22T03:24:49;13.65;;;9.48;;
1811;SDS011;904;47.814;11.134;2024-03-22T03:30:38;14.05;;;9.82;;
1811;SDS011;904;47.814;11.134;2024-03-22T03:36:27;14.07;;;10.95;;
1811;SDS011;904;47.814;11.134;2024-03-22T03:42:17;13.38;;;10.63;;
1811;SDS011;904;47.814;11.134;2024-03-22T03:48:08;20.05;;;13.23;;
1811;SDS011;904;47.814;11.134;2024-03-22T03:53:57;17.13;;;11.73;;
1811;SDS011;904;47.814;11.134;2024-03-22T03:56:24;16.48;;;11.23;;
1811;SDS011;904;47.814;11.134;2024-03-22T04:02:13;16.20;;;11.07;;
1811;SDS011;904;47.814;11.134;2024-03-22T04:08:03;14.07;;;10.25;;
1811;SDS011;904;47.814;11.134;2024-03-22T04:10:30;8.10;;;6.65;;
1811;SDS011;904;47.814;11.134;2024-03-22T04:16:20;8.85;;;6.82;;
1811;SDS011;904;47.814;11.134;2024-03-22T04:25:52;21.95;;;12.15;;
1811;SDS011;904;47.814;11.134;2024-03-22T04:28:37;17.15;;;12.63;;
1811;SDS011;904;47.814;11.134;2024-03-22T04:31:05;16.88;;;11.75;;
1811;SDS011;904;47.814;11.134;2024-03-22T04:36:54;15.10;;;12.88;;
1811;SDS011;904;47.814;11.134;2024-03-22T04:39:30;17.27;;;13.27;;
1811;SDS011;904;47.814;11.134;2024-03-22T04:45:23;13.65;;;10.27;;
1811;SDS011;904;47.814;11.134;2024-03-22T04:51:11;14.02;;;11.02;;
1811;SDS011;904;47.814;11.134;2024-03-22T04:53:39;12.38;;;9.38;;
1811;SDS011;904;47.814;11.134;2024-03-22T04:56:05;16.80;;;9.53;;
1811;SDS011;904;47.814;11.134;2024-03-22T05:02:09;10.00;;;7.95;;
1811;SDS011;904;47.814;11.134;2024-03-22T05:04:36;10.95;;;8.70;;
1811;SDS011;904;47.814;11.134;2024-03-22T05:07:03;13.43;;;9.50;;
1811;SDS011;904;47.814;11.134;2024-03-22T05:09:30;13.75;;;8.57;;
1811;SDS011;904;47.814;11.134;2024-03-22T05:11:59;9.32;;;7.72;;
1811;SDS011;904;47.814;11.134;2024-03-22T05:14:28;14.10;;;10.60;;
1811;SDS011;904;47.814;11.134;2024-03-22T05:20:21;15.82;;;10.95;;
1811;SDS011;904;47.814;11.134;2024-03-22T05:32:42;12.55;;;9.40;;
1811;SDS011;904;47.814;11.134;2024-03-22T05:38:41;13.90;;;9.52;;
1811;SDS011;904;47.814;11.134;2024-03-22T05:41:10;14.65;;;10.63;;
1811;SDS011;904;47.814;11.134;2024-03-22T05:43:36;13.75;;;9.07;;
1811;SDS011;904;47.814;11.134;2024-03-22T05:46:03;12.48;;;9.23;;
1811;SDS011;904;47.814;11.134;2024-03-22T05:51:53;14.88;;;10.48;;
1811;SDS011;904;47.814;11.134;2024-03-22T06:01:19;15.20;;;11.75;;
1811;SDS011;904;47.814;11.134;2024-03-22T06:03:46;12.30;;;10.23;;
1811;SDS011;904;47.814;11.134;2024-03-22T06:09:04;12.63;;;9.50;;
1811;SDS011;904;47.814;11.134;2024-03-22T06:11:36;12.52;;;8.50;;
1811;SDS011;904;47.814;11.134;2024-03-22T06:17:26;11.18;;;7.53;;
1811;SDS011;904;47.814;11.134;2024-03-22T06:33:06;19.25;;;13.02;;
1811;SDS011;904;47.814;11.134;2024-03-22T06:35:33;14.73;;;11.95;;
1811;SDS011;904;47.814;11.134;2024-03-22T06:41:36;12.60;;;9.93;;
1811;SDS011;904;47.814;11.134;2024-03-22T06:47:02;18.92;;;11.77;;
1811;SDS011;904;47.814;11.134;2024-03-22T06:49:34;10.88;;;8.90;;
1811;SDS011;904;47.814;11.134;2024-03-22T06:52:00;17.42;;;11.27;;
1811;SDS011;904;47.814;11.134;2024-03-22T06:54:30;12.80;;;10.32;;
1811;SDS011;904;47.814;11.134;2024-03-22T07:00:17;14.45;;;10.65;;
1811;SDS011;904;47.814;11.134;2024-03-22T07:02:45;13.25;;;9.77;;
1811;SDS011;904;47.814;11.134;2024-03-22T07:08:09;11.35;;;7.93;;
1811;SDS011;904;47.814;11.134;2024-03-22T07:10:38;15.83;;;6.77;;
1811;SDS011;904;47.814;11.134;2024-03-22T07:13:05;8.23;;;6.00;;
1811;SDS011;904;47.814;11.134;2024-03-22T07:15:31;8.45;;;7.10;;
1811;SDS011;904;47.814;11.134;2024-03-22T07:17:59;8.75;;;6.78;;
1811;SDS011;904;47.814;11.134;2024-03-22T07:20:25;7.63;;;6.80;;
1811;SDS011;904;47.814;11.134;2024-03-22T07:22:53;8.60;;;6.30;;
1811;SDS011;904;47.814;11.134;2024-03-22T07:25:22;8.20;;;6.20;;
1811;SDS011;904;47.814;11.134;2024-03-22T07:27:49;7.80;;;5.43;;
1811;SDS011;904;47.814;11.134;2024-03-22T07:30:18;10.13;;;5.07;;
1811;SDS011;904;47.814;11.134;2024-03-22T07:32:46;8.67;;;6.03;;
1811;SDS011;904;47.814;11.134;2024-03-22T07:35:12;10.23;;;5.90;;
1811;SDS011;904;47.814;11.134;2024-03-22T07:37:39;5.57;;;4.07;;
1811;SDS011;904;47.814;11.134;2024-03-22T07:40:08;6.03;;;4.23;;
1811;SDS011;904;47.814;11.134;2024-03-22T07:42:35;8.80;;;4.47;;
1811;SDS011;904;47.814;11.134;2024-03-22T07:47:52;6.73;;;4.57;;
1811;SDS011;904;47.814;11.134;2024-03-22T07:50:18;5.10;;;3.30;;
1811;SDS011;904;47.814;11.134;2024-03-22T07:52:45;4.30;;;3.30;;
1811;SDS011;904;47.814;11.134;2024-03-22T07:55:12;4.10;;;3.03;;
1811;SDS011;904;47.814;11.134;2024-03-22T07:57:39;7.87;;;3.27;;
1811;SDS011;904;47.814;11.134;2024-03-22T08:00:06;7.27;;;4.80;;
1811;SDS011;904;47.814;11.134;2024-03-22T08:02:33;3.40;;;2.73;;
1811;SDS011;904;47.814;11.134;2024-03-22T08:04:59;4.10;;;3.13;;
1811;SDS011;904;47.814;11.134;2024-03-22T08:07:26;6.27;;;3.30;;
1811;SDS011;904;47.814;11.134;2024-03-22T08:09:52;5.90;;;3.03;;
1811;SDS011;904;47.814;11.134;2024-03-22T08:12:22;3.90;;;2.70;;
1811;SDS011;904;47.814;11.134;2024-03-22T08:14:49;4.80;;;2.60;;
1811;SDS011;904;47.814;11.134;2024-03-22T08:17:16;4.00;;;2.00;;
1811;SDS011;904;47.814;11.134;2024-03-22T08:19:42;3.40;;;2.20;;
1811;SDS011;904;47.814;11.134;2024-03-22T08:22:10;4.43;;;2.80;;
1811;SDS011;904;47.814;11.134;2024-03-22T08:24:36;3.77;;;2.90;;
1811;SDS011;904;47.814;11.134;2024-03-22T08:27:03;5.20;;;2.27;;
1811;SDS011;904;47.814;11.134;2024-03-22T08:29:31;4.20;;;2.50;;
1811;SDS011;904;47.814;11.134;2024-03-22T08:31:58;3.30;;;2.50;;
1811;SDS011;904;47.814;11.134;2024-03-22T08:34:24;5.17;;;2.13;;
1811;SDS011;904;47.814;11.134;2024-03-22T08:36:50;4.10;;;2.23;;
1811;SDS011;904;47.814;11.134;2024-03-22T08:39:16;3.50;;;2.20;;
1811;SDS011;904;47.814;11.134;2024-03-22T08:41:49;3.90;;;2.17;;
1811;SDS011;904;47.814;11.134;2024-03-22T08:44:16;3.30;;;1.97;;
1811;SDS011;904;47.814;11.134;2024-03-22T08:46:44;3.70;;;2.20;;
1811;SDS011;904;47.814;11.134;2024-03-22T08:49:11;3.50;;;2.10;;
1811;SDS011;904;47.814;11.134;2024-03-22T08:51:38;4.37;;;2.03;;
1811;SDS011;904;47.814;11.134;2024-03-22T08:54:04;2.77;;;1.87;;
1811;SDS011;904;47.814;11.134;2024-03-22T08:56:31;4.17;;;1.90;;
1811;SDS011;904;47.814;11.134;2024-03-22T08:58:57;2.90;;;1.73;;
1811;SDS011;904;47.814;11.134;2024-03-22T09:01:24;4.53;;;2.03;;
1811;SDS011;904;47.814;11.134;2024-03-22T09:03:51;3.07;;;1.97;;
1811;SDS011;904;47.814;11.134;2024-03-22T09:06:18;4.13;;;2.00;;
1811;SDS011;904;47.814;11.134;2024-03-22T09:08:44;3.50;;;1.97;;
1811;SDS011;904;47.814;11.134;2024-03-22T09:11:11;3.43;;;2.00;;
1811;SDS011;904;47.814;11.134;2024-03-22T09:13:37;3.40;;;2.27;;
1811;SDS011;904;47.814;11.134;2024-03-22T09:16:05;2.90;;;1.77;;
1811;SDS011;904;47.814;11.134;2024-03-22T09:18:31;3.20;;;1.87;;
1811;SDS011;904;47.814;11.134;2024-03-22T09:20:59;4.80;;;2.10;;
1811;SDS011;904;47.814;11.134;2024-03-22T09:23:25;3.20;;;1.60;;
1811;SDS011;904;47.814;11.134;2024-03-22T09:25:52;4.00;;;1.70;;
1811;SDS011;904;47.814;11.134;2024-03-22T09:28:18;3.57;;;1.80;;
1811;SDS011;904;47.814;11.134;2024-03-22T09:30:45;3.20;;;1.70;;
1811;SDS011;904;47.814;11.134;2024-03-22T09:33:12;4.60;;;2.47;;
1811;SDS011;904;47.814;11.134;2024-03-22T09:35:39;3.43;;;2.20;;
1811;SDS011;904;47.814;11.134;2024-03-22T09:38:07;4.07;;;2.00;;
1811;SDS011;904;47.814;11.134;2024-03-22T09:40:34;3.20;;;2.00;;
1811;SDS011;904;47.814;11.134;2024-03-22T09:43:03;7.00;;;2.17;;
1811;SDS011;904;47.814;11.134;2024-03-22T09:45:33;4.47;;;1.97;;
1811;SDS011;904;47.814;11.134;2024-03-22T09:47:59;3.07;;;1.80;;
1811;SDS011;904;47.814;11.134;2024-03-22T09:50:27;3.00;;;1.90;;
1811;SDS011;904;47.814;11.134;2024-03-22T09:52:54;4.57;;;1.97;;
1811;SDS011;904;47.814;11.134;2024-03-22T09:55:24;6.90;;;1.90;;
1811;SDS011;904;47.814;11.134;2024-03-22T09:57:50;4.40;;;2.00;;
1811;SDS011;904;47.814;11.134;2024-03-22T10:00:19;3.47;;;2.23;;
1811;SDS011;904;47.814;11.134;2024-03-22T10:02:47;3.20;;;1.70;;
1811;SDS011;904;47.814;11.134;2024-03-22T10:05:15;5.60;;;1.70;;
1811;SDS011;904;47.814;11.134;2024-03-22T10:07:42;4.83;;;2.10;;
1811;SDS011;904;47.814;11.134;2024-03-22T10:10:10;4.43;;;2.00;;
1811;SDS011;904;47.814;11.134;2024-03-22T10:12:38;3.80;;;2.20;;
1811;SDS011;904;47.814;11.134;2024-03-22T10:15:06;2.93;;;1.67;;
1811;SDS011;904;47.814;11.134;2024-03-22T10:17:34;3.60;;;1.80;;
1811;SDS011;904;47.814;11.134;2024-03-22T10:20:01;3.03;;;1.80;;
1811;SDS011;904;47.814;11.134;2024-03-22T10:22:28;4.43;;;1.67;;
1811;SDS011;904;47.814;11.134;2024-03-22T10:24:55;4.17;;;2.00;;
1811;SDS011;904;47.814;11.134;2024-03-22T10:27:26;5.43;;;2.00;;
1811;SDS011;904;47.814;11.134;2024-03-22T10:29:58;6.87;;;2.00;;
1811;SDS011;904;47.814;11.134;2024-03-22T10:32:25;4.00;;;2.03;;
1811;SDS011;904;47.814;11.134;2024-03-22T10:34:52;3.80;;;1.53;;
1811;SDS011;904;47.814;11.134;2024-03-22T10:37:18;3.00;;;1.67;;
1811;SDS011;904;47.814;11.134;2024-03-22T10:39:46;4.07;;;2.10;;
1811;SDS011;904;47.814;11.134;2024-03-22T10:42:18;4.20;;;1.60;;
1811;SDS011;904;47.814;11.134;2024-03-22T10:44:45;3.47;;;1.50;;
1811;SDS011;904;47.814;11.134;2024-03-22T10:47:12;3.63;;;1.70;;
1811;SDS011;904;47.814;11.134;2024-03-22T10:49:42;3.33;;;1.60;;
1811;SDS011;904;47.814;11.134;2024-03-22T10:52:11;3.23;;;1.30;;
1811;SDS011;904;47.814;11.134;2024-03-22T10:54:40;4.87;;;1.57;;
1811;SDS011;904;47.814;11.134;2024-03-22T10:57:11;2.93;;;1.27;;
1811;SDS011;904;47.814;11.134;2024-03-22T10:59:40;3.50;;;1.60;;
1811;SDS011;904;47.814;11.134;2024-03-22T11:02:09;3.43;;;1.50;;
1811;SDS011;904;47.814;11.134;2024-03-22T11:04:38;4.27;;;1.83;;
1811;SDS011;904;47.814;11.134;2024-03-22T11:07:04;5.00;;;1.80;;
1811;SDS011;904;47.814;11.134;2024-03-22T11:09:33;3.73;;;1.50;;
1811;SDS011;904;47.814;11.134;2024-03-22T11:11:59;3.90;;;1.77;;
1811;SDS011;904;47.814;11.134;2024-03-22T11:14:26;2.70;;;1.40;;
1811;SDS011;904;47.814;11.134;2024-03-22T11:16:52;3.43;;;1.50;;
1811;SDS011;904;47.814;11.134;2024-03-22T11:19:19;3.23;;;1.50;;
1811;SDS011;904;47.814;11.134;2024-03-22T11:21:46;3.80;;;1.63;;
1811;SDS011;904;47.814;11.134;2024-03-22T11:24:13;4.23;;;1.90;;
1811;SDS011;904;47.814;11.134;2024-03-22T11:26:40;3.90;;;1.43;;
1811;SDS011;904;47.814;11.134;2024-03-22T11:29:09;4.77;;;1.77;;
1811;SDS011;904;47.814;11.134;2024-03-22T11:31:35;4.17;;;2.20;;
1811;SDS011;904;47.814;11.134;2024-03-22T11:34:02;2.60;;;1.23;;
1811;SDS011;904;47.814;11.134;2024-03-22T11:36:29;2.43;;;1.20;;
1811;SDS011;904;47.814;11.134;2024-03-22T11:38:57;3.00;;;1.30;;
1811;SDS011;904;47.814;11.134;2024-03-22T11:41:24;3.33;;;1.00;;
1811;SDS011;904;47.814;11.134;2024-03-22T11:43:54;3.43;;;1.60;;
1811;SDS011;904;47.814;11.134;2024-03-22T11:46:21;3.20;;;1.43;;
1811;SDS011;904;47.814;11.134;2024-03-22T11:48:50;4.23;;;1.70;;
1811;SDS011;904;47.814;11.134;2024-03-22T11:51:17;3.30;;;1.70;;
1811;SDS011;904;47.814;11.134;2024-03-22T11:53:48;2.90;;;1.40;;
1811;SDS011;904;47.814;11.134;2024-03-22T11:56:18;7.30;;;1.70;;
1811;SDS011;904;47.814;11.134;2024-03-22T11:58:46;2.50;;;1.40;;
1811;SDS011;904;47.814;11.134;2024-03-22T12:01:13;2.90;;;1.33;;
1811;SDS011;904;47.814;11.134;2024-03-22T12:03:42;2.30;;;0.97;;
1811;SDS011;904;47.814;11.134;2024-03-22T12:06:09;2.63;;;1.37;;
1811;SDS011;904;47.814;11.134;2024-03-22T12:08:37;3.30;;;1.50;;
1811;SDS011;904;47.814;11.134;2024-03-22T12:11:05;3.13;;;1.50;;
1811;SDS011;904;47.814;11.134;2024-03-22T12:13:35;3.70;;;1.30;;
1811;SDS011;904;47.814;11.134;2024-03-22T12:16:02;4.17;;;1.73;;
1811;SDS011;904;47.814;11.134;2024-03-22T12:18:29;3.70;;;1.33;;
1811;SDS011;904;47.814;11.134;2024-03-22T12:20:55;6.23;;;1.73;;
1811;SDS011;904;47.814;11.134;2024-03-22T12:23:22;3.23;;;1.60;;
1811;SDS011;904;47.814;11.134;2024-03-22T12:25:49;3.00;;;2.00;;
1811;SDS011;904;47.814;11.134;2024-03-22T12:28:16;2.70;;;1.33;;
1811;SDS011;904;47.814;11.134;2024-03-22T12:30:44;3.80;;;1.60;;
1811;SDS011;904;47.814;11.134;2024-03-22T12:33:11;4.40;;;1.50;;
1811;SDS011;904;47.814;11.134;2024-03-22T12:35:39;4.23;;;1.63;;
1811;SDS011;904;47.814;11.134;2024-03-22T12:38:06;2.73;;;1.50;;
1811;SDS011;904;47.814;11.134;2024-03-22T12:40:32;4.10;;;1.57;;
1811;SDS011;904;47.814;11.134;2024-03-22T12:43:00;2.43;;;1.20;;
1811;SDS011;904;47.814;11.134;2024-03-22T12:45:26;6.63;;;1.30;;
1811;SDS011;904;47.814;11.134;2024-03-22T12:47:54;4.50;;;1.40;;
1811;SDS011;904;47.814;11.134;2024-03-22T12:50:20;2.83;;;1.43;;
1811;SDS011;904;47.814;11.134;2024-03-22T12:52:48;3.37;;;1.40;;
1811;SDS011;904;47.814;11.134;2024-03-22T12:55:14;2.60;;;1.43;;
1811;SDS011;904;47.814;11.134;2024-03-22T12:57:41;2.97;;;1.23;;
1811;SDS011;904;47.814;11.134;2024-03-22T13:00:15;3.07;;;1.33;;
1811;SDS011;904;47.814;11.134;2024-03-22T13:02:44;3.27;;;1.50;;
1811;SDS011;904;47.814;11.134;2024-03-22T13:05:16;3.97;;;1.27;;
1811;SDS011;904;47.814;11.134;2024-03-22T13:07:43;2.30;;;1.23;;
1811;SDS011;904;47.814;11.134;2024-03-22T13:10:09;2.93;;;1.40;;
1811;SDS011;904;47.814;11.134;2024-03-22T13:12:37;3.50;;;1.63;;
1811;SDS011;904;47.814;11.134;2024-03-22T13:15:03;2.93;;;1.40;;
1811;SDS011;904;47.814;11.134;2024-03-22T13:17:36;3.63;;;1.13;;
1811;SDS011;904;47.814;11.134;2024-03-22T13:20:05;2.90;;;1.50;;
1811;SDS011;904;47.814;11.134;2024-03-22T13:22:37;2.70;;;1.43;;
1811;SDS011;904;47.814;11.134;2024-03-22T13:25:03;4.57;;;1.50;;
1811;SDS011;904;47.814;11.134;2024-03-22T13:27:32;4.50;;;1.80;;
1811;SDS011;904;47.814;11.134;2024-03-22T13:29:59;2.87;;;1.60;;
1811;SDS011;904;47.814;11.134;2024-03-22T13:32:26;2.90;;;1.27;;
1811;SDS011;904;47.814;11.134;2024-03-22T13:34:57;2.80;;;1.47;;
1811;SDS011;904;47.814;11.134;2024-03-22T13:37:24;4.30;;;1.27;;
1811;SDS011;904;47.814;11.134;2024-03-22T13:39:52;5.57;;;1.63;;
1811;SDS011;904;47.814;11.134;2024-03-22T13:42:19;2.97;;;1.40;;
1811;SDS011;904;47.814;11.134;2024-03-22T13:44:45;2.70;;;1.40;;
1811;SDS011;904;47.814;11.134;2024-03-22T13:47:12;3.80;;;1.40;;
1811;SDS011;904;47.814;11.134;2024-03-22T13:49:38;2.97;;;1.60;;
1811;SDS011;904;47.814;11.134;2024-03-22T13:52:06;3.00;;;1.33;;
1811;SDS011;904;47.814;11.134;2024-03-22T13:54:32;2.77;;;1.40;;
1811;SDS011;904;47.814;11.134;2024-03-22T13:57:01;2.77;;;1.50;;
1811;SDS011;904;47.814;11.134;2024-03-22T13:59:27;7.40;;;1.80;;
1811;SDS011;904;47.814;11.134;2024-03-22T14:01:54;8.23;;;1.40;;
1811;SDS011;904;47.814;11.134;2024-03-22T14:04:21;4.00;;;1.50;;
1811;SDS011;904;47.814;11.134;2024-03-22T14:06:49;2.70;;;1.13;;
1811;SDS011;904;47.814;11.134;2024-03-22T14:09:15;6.47;;;1.50;;
1811;SDS011;904;47.814;11.134;2024-03-22T14:11:42;7.93;;;1.30;;
1811;SDS011;904;47.814;11.134;2024-03-22T14:14:09;4.33;;;1.43;;
1811;SDS011;904;47.814;11.134;2024-03-22T14:16:37;3.27;;;1.30;;
1811;SDS011;904;47.814;11.134;2024-03-22T14:19:03;2.70;;;1.10;;
1811;SDS011;904;47.814;11.134;2024-03-22T14:21:30;2.37;;;1.10;;
1811;SDS011;904;47.814;11.134;2024-03-22T14:23:56;5.20;;;1.33;;
1811;SDS011;904;47.814;11.134;2024-03-22T14:26:23;2.83;;;1.40;;
1811;SDS011;904;47.814;11.134;2024-03-22T14:28:49;4.10;;;1.30;;
1811;SDS011;904;47.814;11.134;2024-03-22T14:31:19;3.53;;;1.60;;
1811;SDS011;904;47.814;11.134;2024-03-22T14:33:45;3.43;;;1.40;;
1811;SDS011;904;47.814;11.134;2024-03-22T14:36:12;3.10;;;1.40;;
1811;SDS011;904;47.814;11.134;2024-03-22T14:38:38;3.00;;;1.30;;
1811;SDS011;904;47.814;11.134;2024-03-22T14:41:07;4.00;;;1.40;;
1811;SDS011;904;47.814;11.134;2024-03-22T14:43:34;2.60;;;1.20;;
1811;SDS011;904;47.814;11.134;2024-03-22T14:46:01;3.03;;;1.13;;
1811;SDS011;904;47.814;11.134;2024-03-22T14:48:29;4.40;;;1.37;;
1811;SDS011;904;47.814;11.134;2024-03-22T14:50:56;2.57;;;1.10;;
1811;SDS011;904;47.814;11.134;2024-03-22T14:53:22;2.20;;;1.10;;
1811;SDS011;904;47.814;11.134;2024-03-22T14:55:54;2.50;;;1.10;;
1811;SDS011;904;47.814;11.134;2024-03-22T14:58:23;2.77;;;1.10;;
1811;SDS011;904;47.814;11.134;2024-03-22T15:00:52;4.67;;;1.60;;
1811;SDS011;904;47.814;11.134;2024-03-22T15:03:18;3.47;;;1.37;;
1811;SDS011;904;47.814;11.134;2024-03-22T15:05:46;4.33;;;1.43;;
1811;SDS011;904;47.814;11.134;2024-03-22T15:08:12;3.83;;;1.33;;
1811;SDS011;904;47.814;11.134;2024-03-22T15:10:39;3.43;;;1.57;;
1811;SDS011;904;47.814;11.134;2024-03-22T15:13:06;2.47;;;1.13;;
1811;SDS011;904;47.814;11.134;2024-03-22T15:15:33;3.20;;;1.27;;
1811;SDS011;904;47.814;11.134;2024-03-22T15:18:00;4.93;;;1.40;;
1811;SDS011;904;47.814;11.134;2024-03-22T15:20:31;3.93;;;1.40;;
1811;SDS011;904;47.814;11.134;2024-03-22T15:22:59;3.37;;;1.53;;
1811;SDS011;904;47.814;11.134;2024-03-22T15:25:26;5.10;;;1.57;;
1811;SDS011;904;47.814;11.134;2024-03-22T15:27:52;4.43;;;1.63;;
1811;SDS011;904;47.814;11.134;2024-03-22T15:30:19;2.93;;;1.40;;
1811;SDS011;904;47.814;11.134;2024-03-22T15:32:45;2.80;;;1.50;;
1811;SDS011;904;47.814;11.134;2024-03-22T15:35:12;3.93;;;1.13;;
1811;SDS011;904;47.814;11.134;2024-03-22T15:37:38;2.63;;;1.40;;
1811;SDS011;904;47.814;11.134;2024-03-22T15:40:07;2.80;;;1.20;;
1811;SDS011;904;47.814;11.134;2024-03-22T15:42:34;3.10;;;1.10;;
1811;SDS011;904;47.814;11.134;2024-03-22T15:45:01;2.23;;;0.90;;
1811;SDS011;904;47.814;11.134;2024-03-22T15:47:28;5.50;;;2.73;;
1811;SDS011;904;47.814;11.134;2024-03-22T15:49:55;4.90;;;3.07;;
1811;SDS011;904;47.814;11.134;2024-03-22T15:52:21;5.60;;;2.90;;
1811;SDS011;904;47.814;11.134;2024-03-22T15:54:48;6.20;;;2.10;;
1811;SDS011;904;47.814;11.134;2024-03-22T15:57:16;4.03;;;1.40;;
1811;SDS011;904;47.814;11.134;2024-03-22T15:59:43;4.30;;;1.30;;
1811;SDS011;904;47.814;11.134;2024-03-22T16:02:09;2.30;;;1.30;;
1811;SDS011;904;47.814;11.134;2024-03-22T16:04:39;2.67;;;1.20;;
1811;SDS011;904;47.814;11.134;2024-03-22T16:07:05;3.10;;;1.20;;
1811;SDS011;904;47.814;11.134;2024-03-22T16:09:32;4.63;;;1.70;;
1811;SDS011;904;47.814;11.134;2024-03-22T16:12:00;2.80;;;1.40;;
1811;SDS011;904;47.814;11.134;2024-03-22T16:14:28;2.70;;;1.40;;
1811;SDS011;904;47.814;11.134;2024-03-22T16:16:54;2.90;;;1.37;;
1811;SDS011;904;47.814;11.134;2024-03-22T16:19:21;3.10;;;1.37;;
1811;SDS011;904;47.814;11.134;2024-03-22T16:21:47;6.80;;;1.30;;
1811;SDS011;904;47.814;11.134;2024-03-22T16:24:14;3.23;;;1.50;;
1811;SDS011;904;47.814;11.134;2024-03-22T16:26:42;2.67;;;1.20;;
1811;SDS011;904;47.814;11.134;2024-03-22T16:29:09;4.73;;;2.30;;
1811;SDS011;904;47.814;11.134;2024-03-22T16:31:36;4.30;;;1.50;;
1811;SDS011;904;47.814;11.134;2024-03-22T16:34:04;3.43;;;1.87;;
1811;SDS011;904;47.814;11.134;2024-03-22T16:36:30;2.90;;;1.50;;
1811;SDS011;904;47.814;11.134;2024-03-22T16:38:58;3.57;;;1.70;;
1811;SDS011;904;47.814;11.134;2024-03-22T16:41:24;2.70;;;1.50;;
1811;SDS011;904;47.814;11.134;2024-03-22T16:43:51;4.00;;;1.60;;
1811;SDS011;904;47.814;11.134;2024-03-22T16:46:17;5.40;;;1.70;;
1811;SDS011;904;47.814;11.134;2024-03-22T16:48:45;3.23;;;1.40;;
1811;SDS011;904;47.814;11.134;2024-03-22T16:51:11;2.83;;;1.60;;
1811;SDS011;904;47.814;11.134;2024-03-22T16:53:38;3.20;;;1.60;;
1811;SDS011;904;47.814;11.134;2024-03-22T16:56:04;4.10;;;1.73;;
1811;SDS011;904;47.814;11.134;2024-03-22T16:58:31;3.20;;;1.40;;
1811;SDS011;904;47.814;11.134;2024-03-22T17:01:01;3.07;;;1.60;;
1811;SDS011;904;47.814;11.134;2024-03-22T17:03:29;4.73;;;1.93;;
1811;SDS011;904;47.814;11.134;2024-03-22T17:05:56;4.47;;;1.70;;
1811;SDS011;904;47.814;11.134;2024-03-22T17:08:23;3.93;;;1.57;;
1811;SDS011;904;47.814;11.134;2024-03-22T17:10:49;3.90;;;1.67;;
1811;SDS011;904;47.814;11.134;2024-03-22T17:13:20;3.70;;;1.90;;
1811;SDS011;904;47.814;11.134;2024-03-22T17:15:47;5.00;;;2.03;;
1811;SDS011;904;47.814;11.134;2024-03-22T17:18:14;5.13;;;2.50;;
1811;SDS011;904;47.814;11.134;2024-03-22T17:20:39;3.20;;;1.97;;
1811;SDS011;904;47.814;11.134;2024-03-22T17:23:08;4.97;;;2.30;;
1811;SDS011;904;47.814;11.134;2024-03-22T17:25:34;4.77;;;2.87;;
1811;SDS011;904;47.814;11.134;2024-03-22T17:28:01;6.40;;;2.47;;
1811;SDS011;904;47.814;11.134;2024-03-22T17:30:27;5.40;;;2.20;;
1811;SDS011;904;47.814;11.134;2024-03-22T17:32:55;6.40;;;3.63;;
1811;SDS011;904;47.814;11.134;2024-03-22T17:35:20;11.93;;;5.43;;
1811;SDS011;904;47.814;11.134;2024-03-22T17:37:47;8.83;;;5.57;;
1811;SDS011;904;47.814;11.134;2024-03-22T17:40:15;8.10;;;6.10;;
1811;SDS011;904;47.814;11.134;2024-03-22T17:42:42;9.40;;;6.77;;
1811;SDS011;904;47.814;11.134;2024-03-22T17:45:08;6.73;;;5.50;;
1811;SDS011;904;47.814;11.134;2024-03-22T17:47:35;8.63;;;4.80;;
1811;SDS011;904;47.814;11.134;2024-03-22T17:50:01;5.90;;;4.73;;
1811;SDS011;904;47.814;11.134;2024-03-22T17:52:29;8.43;;;4.23;;
1811;SDS011;904;47.814;11.134;2024-03-22T17:54:55;5.90;;;3.90;;
1811;SDS011;904;47.814;11.134;2024-03-22T17:57:23;7.40;;;3.93;;
1811;SDS011;904;47.814;11.134;2024-03-22T17:59:51;5.23;;;3.23;;
1811;SDS011;904;47.814;11.134;2024-03-22T18:02:17;8.20;;;2.90;;
1811;SDS011;904;47.814;11.134;2024-03-22T18:04:43;8.40;;;5.63;;
1811;SDS011;904;47.814;11.134;2024-03-22T18:07:10;5.57;;;3.17;;
1811;SDS011;904;47.814;11.134;2024-03-22T18:09:36;4.90;;;3.60;;
1811;SDS011;904;47.814;11.134;2024-03-22T18:12:03;6.30;;;3.90;;
1811;SDS011;904;47.814;11.134;2024-03-22T18:14:31;8.60;;;4.47;;
1811;SDS011;904;47.814;11.134;2024-03-22T18:16:58;8.27;;;3.77;;
1811;SDS011;904;47.814;11.134;2024-03-22T18:19:26;5.73;;;3.33;;
1811;SDS011;904;47.814;11.134;2024-03-22T18:21:53;6.10;;;4.00;;
1811;SDS011;904;47.814;11.134;2024-03-22T18:24:19;11.37;;;6.33;;
1811;SDS011;904;47.814;11.134;2024-03-22T18:26:46;10.97;;;5.60;;
1811;SDS011;904;47.814;11.134;2024-03-22T18:29:12;15.30;;;7.30;;
1811;SDS011;904;47.814;11.134;2024-03-22T18:31:41;15.27;;;9.60;;
1811;SDS011;904;47.814;11.134;2024-03-22T18:34:06;18.03;;;10.00;;
1811;SDS011;904;47.814;11.134;2024-03-22T18:39:25;15.00;;;10.43;;
1811;SDS011;904;47.814;11.134;2024-03-22T18:41:52;13.90;;;10.40;;
1811;SDS011;904;47.814;11.134;2024-03-22T18:44:18;13.47;;;9.83;;
1811;SDS011;904;47.814;11.134;2024-03-22T18:46:47;15.67;;;10.80;;
1811;SDS011;904;47.814;11.134;2024-03-22T18:49:13;13.90;;;10.17;;
1811;SDS011;904;47.814;11.134;2024-03-22T18:51:40;14.23;;;9.57;;
1811;SDS011;904;47.814;11.134;2024-03-22T18:54:06;11.63;;;8.80;;